Time;durP1;ratioP1;P1;durP2;ratioP2;P2;SDS_P1;SDS_P2;PMS_P1;PMS_P2;Temp;Humidity;BMP_temperature;BMP_pressure;BME280_temperature;BME280_humidity;BME280_pressure;Samples;Min_cycle;Max_cycle;Signal;HPM_P1;HPM_P2
2022/02/09 00:07:52;;;;;;;14.32;6.97;;;;;;;;;;5065906;28;20054;-59
2022/02/09 00:10:19;;;;;;;9.95;5.47;;;;;;;;;;5115716;28;20124;-59
2022/02/09 00:12:53;;;;;;;11.85;5.47;;;;;;;;;;5115481;28;20147;-59
2022/02/09 00:15:31;;;;;;;12.55;5.60;;;;;;;;;;5122092;22;20040;-61
2022/02/09 00:18:08;;;;;;;11.52;5.10;;;;;;;;;;5095018;28;20141;-61
2022/02/09 00:21:03;;;;;;;12.02;5.70;;;;;;;;;;5094953;28;20084;-61
2022/02/09 00:23:50;;;;;;;11.98;5.65;;;;;;;;;;5094620;28;20404;-61
2022/02/09 00:34:53;;;;;;;10.88;5.28;;;;;;;;;;5094795;28;20476;-61
2022/02/09 00:40:31;;;;;;;10.32;4.65;;;;;;;;;;5091025;28;20139;-60
2022/02/09 01:38:11;;;;;;;5.55;3.30;;;;;;;;;;5093468;28;20102;-61
2022/02/09 01:57:13;;;;;;;7.72;4.20;;;;;;;;;;5093162;28;20417;-61
2022/02/09 01:59:43;;;;;;;8.03;3.50;;;;;;;;;;5092934;28;20051;-61
2022/02/09 02:02:10;;;;;;;9.30;3.85;;;;;;;;;;5092752;28;20071;-62
2022/02/09 02:04:37;;;;;;;7.10;4.65;;;;;;;;;;5092947;28;20131;-61
2022/02/09 02:07:12;;;;;;;7.97;3.95;;;;;;;;;;5092857;28;20131;-61
2022/02/09 02:09:40;;;;;;;9.55;3.92;;;;;;;;;;5093227;28;20052;-61
2022/02/09 02:12:13;;;;;;;7.50;3.55;;;;;;;;;;5092625;28;20139;-61
2022/02/09 02:14:45;;;;;;;7.13;3.20;;;;;;;;;;5092471;28;20044;-61
2022/02/09 02:17:18;;;;;;;6.03;3.03;;;;;;;;;;5092847;28;20044;-61
2022/02/09 02:19:48;;;;;;;8.70;3.55;;;;;;;;;;5092759;28;20143;-62
2022/02/09 02:22:36;;;;;;;8.40;4.13;;;;;;;;;;5092717;28;20052;-62
2022/02/09 02:25:36;;;;;;;11.25;4.30;;;;;;;;;;5092915;28;20420;-63
2022/02/09 02:34:07;;;;;;;9.73;4.57;;;;;;;;;;5092129;28;20040;-61
2022/02/09 03:10:14;;;;;;;10.18;3.35;;;;;;;;;;5092014;28;20101;-61
2022/02/09 03:12:45;;;;;;;12.57;3.88;;;;;;;;;;5091903;28;20051;-62
2022/02/09 03:15:28;;;;;;;7.85;3.47;;;;;;;;;;5092299;28;20414;-62
2022/02/09 03:18:10;;;;;;;9.57;3.72;;;;;;;;;;5092238;28;20510;-61
2022/02/09 03:20:44;;;;;;;7.13;3.38;;;;;;;;;;5092114;28;20392;-61
2022/02/09 03:23:38;;;;;;;8.25;3.63;;;;;;;;;;5092009;28;20109;-61
2022/02/09 03:26:27;;;;;;;6.82;3.38;;;;;;;;;;5091545;28;20048;-62
2022/02/09 03:42:50;;;;;;;6.47;3.42;;;;;;;;;;5091756;28;20139;-62
2022/02/09 03:51:10;;;;;;;6.63;3.45;;;;;;;;;;5087807;28;20339;-61
2022/02/09 03:53:54;;;;;;;6.63;3.58;;;;;;;;;;5092079;28;20237;-61
2022/02/09 03:56:31;;;;;;;6.53;2.83;;;;;;;;;;5091885;28;20556;-62
2022/02/09 03:58:58;;;;;;;6.13;3.00;;;;;;;;;;5093457;28;20060;-61
2022/02/09 04:01:31;;;;;;;7.07;3.33;;;;;;;;;;5095427;28;20040;-61
2022/02/09 04:03:58;;;;;;;5.40;2.58;;;;;;;;;;5095352;28;20073;-62
2022/02/09 04:06:25;;;;;;;6.13;2.92;;;;;;;;;;5095514;28;20146;-61
2022/02/09 04:08:56;;;;;;;5.85;2.63;;;;;;;;;;5095320;28;20151;-60
2022/02/09 04:11:28;;;;;;;7.60;3.00;;;;;;;;;;5095309;28;20076;-59
2022/02/09 04:14:04;;;;;;;5.75;2.50;;;;;;;;;;5094968;28;20048;-61
2022/02/09 04:16:54;;;;;;;8.25;3.13;;;;;;;;;;5095211;28;20416;-60
2022/02/09 04:19:30;;;;;;;7.05;2.47;;;;;;;;;;5094917;28;20056;-60
2022/02/09 04:38:43;;;;;;;4.90;2.40;;;;;;;;;;5094593;28;20516;-62
2022/02/09 04:44:15;;;;;;;5.78;3.00;;;;;;;;;;5094567;28;20048;-62
2022/02/09 04:52:20;;;;;;;7.00;3.05;;;;;;;;;;5049301;28;20083;-59
2022/02/09 04:54:52;;;;;;;10.98;2.83;;;;;;;;;;5094052;28;20044;-61
2022/02/09 04:57:31;;;;;;;11.00;2.70;;;;;;;;;;5094480;28;20139;-61
2022/02/09 05:00:13;;;;;;;5.88;2.72;;;;;;;;;;5094627;28;20058;-61
2022/02/09 05:03:12;;;;;;;6.30;3.15;;;;;;;;;;5094540;28;20437;-61
2022/02/09 05:22:37;;;;;;;7.00;2.42;;;;;;;;;;5093744;28;20098;-64
2022/02/09 05:25:27;;;;;;;11.75;3.35;;;;;;;;;;5093722;28;20043;-63
2022/02/09 05:28:02;;;;;;;7.80;3.15;;;;;;;;;;5093189;28;20394;-64
2022/02/09 05:30:29;;;;;;;9.32;3.45;;;;;;;;;;5093610;28;20142;-63
2022/02/09 05:32:56;;;;;;;8.63;3.15;;;;;;;;;;5093351;28;20130;-63
2022/02/09 05:35:23;;;;;;;7.05;2.95;;;;;;;;;;5093424;28;20405;-63
2022/02/09 05:37:53;;;;;;;6.72;3.22;;;;;;;;;;5093031;28;20044;-64
2022/02/09 05:40:20;;;;;;;8.52;3.63;;;;;;;;;;5093382;28;20483;-63
2022/02/09 05:42:48;;;;;;;8.32;4.10;;;;;;;;;;5093210;28;20127;-63
2022/02/09 05:45:16;;;;;;;8.20;3.30;;;;;;;;;;5093439;28;20135;-64
2022/02/09 05:50:46;;;;;;;10.63;3.78;;;;;;;;;;5056509;28;20043;-64
2022/02/09 05:53:17;;;;;;;8.23;2.97;;;;;;;;;;5093302;28;20519;-64
2022/02/09 05:55:46;;;;;;;6.40;3.00;;;;;;;;;;5092883;28;20056;-64
2022/02/09 05:58:22;;;;;;;8.30;3.88;;;;;;;;;;5092811;28;20101;-64
2022/02/09 06:00:49;;;;;;;10.45;4.22;;;;;;;;;;5092785;28;20139;-63
2022/02/09 06:03:17;;;;;;;10.80;4.10;;;;;;;;;;5093384;28;20132;-64
2022/02/09 06:05:44;;;;;;;11.05;4.07;;;;;;;;;;5092784;28;20131;-63
2022/02/09 06:08:11;;;;;;;11.73;4.45;;;;;;;;;;5092576;28;20127;-64
2022/02/09 06:10:45;;;;;;;11.98;4.65;;;;;;;;;;5092631;28;20135;-63
2022/02/09 06:13:19;;;;;;;9.65;4.07;;;;;;;;;;5092862;28;20393;-64
2022/02/09 06:21:24;;;;;;;12.88;4.75;;;;;;;;;;5092167;28;20637;-64
2022/02/09 06:23:51;;;;;;;10.43;4.55;;;;;;;;;;5092806;28;20051;-63
2022/02/09 06:26:20;;;;;;;8.38;4.07;;;;;;;;;;5092725;28;20135;-64
2022/02/09 06:28:47;;;;;;;8.88;4.10;;;;;;;;;;5092820;28;20040;-64
2022/02/09 06:31:14;;;;;;;9.40;3.88;;;;;;;;;;5093228;28;20066;-63
2022/02/09 06:33:41;;;;;;;11.00;4.63;;;;;;;;;;5093605;28;20127;-64
2022/02/09 06:36:10;;;;;;;10.52;3.38;;;;;;;;;;5092343;28;20124;-64
2022/02/09 06:38:39;;;;;;;12.07;4.30;;;;;;;;;;5092087;28;20048;-63
2022/02/09 06:41:07;;;;;;;10.23;4.40;;;;;;;;;;5092151;28;20059;-64
2022/02/09 06:43:36;;;;;;;11.80;4.28;;;;;;;;;;5092387;28;20052;-64
2022/02/09 06:46:03;;;;;;;12.88;4.18;;;;;;;;;;5092165;28;20052;-64
2022/02/09 06:48:31;;;;;;;11.68;4.47;;;;;;;;;;5091931;28;20105;-62
2022/02/09 06:51:05;;;;;;;11.02;4.18;;;;;;;;;;5092577;28;20452;-62
2022/02/09 06:53:37;;;;;;;13.90;4.05;;;;;;;;;;5092202;28;20079;-64
2022/02/09 06:56:04;;;;;;;10.43;4.43;;;;;;;;;;5092253;28;20150;-63
2022/02/09 06:58:44;;;;;;;12.10;4.38;;;;;;;;;;5092051;28;20148;-63
2022/02/09 07:01:13;;;;;;;14.55;5.10;;;;;;;;;;5092621;28;20564;-65
2022/02/09 07:03:40;;;;;;;14.05;4.75;;;;;;;;;;5092335;28;20450;-64
2022/02/09 07:06:07;;;;;;;15.02;4.95;;;;;;;;;;5092247;28;20080;-64
2022/02/09 07:08:34;;;;;;;13.43;4.90;;;;;;;;;;5091613;28;20112;-64
2022/02/09 07:11:01;;;;;;;14.23;4.47;;;;;;;;;;5092028;28;20048;-63
2022/02/09 07:13:28;;;;;;;12.73;5.68;;;;;;;;;;5092066;28;20048;-63
2022/02/09 07:16:03;;;;;;;12.00;4.60;;;;;;;;;;5092150;28;20048;-63
2022/02/09 07:18:31;;;;;;;12.63;5.15;;;;;;;;;;5091989;28;20323;-63
2022/02/09 07:21:03;;;;;;;12.90;4.57;;;;;;;;;;5091934;28;20044;-64
2022/02/09 07:23:35;;;;;;;10.20;4.45;;;;;;;;;;5092090;28;20135;-63
2022/02/09 07:26:06;;;;;;;13.82;4.70;;;;;;;;;;5092854;28;20131;-64
2022/02/09 07:28:34;;;;;;;13.02;5.22;;;;;;;;;;5092069;28;20079;-64
2022/02/09 07:31:02;;;;;;;13.25;4.90;;;;;;;;;;5092063;28;20217;-64
2022/02/09 07:33:31;;;;;;;13.80;5.07;;;;;;;;;;5093119;28;20040;-63
2022/02/09 07:35:58;;;;;;;9.15;3.67;;;;;;;;;;5095872;28;20525;-63
2022/02/09 07:38:25;;;;;;;8.13;3.83;;;;;;;;;;5095324;28;20075;-63
2022/02/09 07:40:57;;;;;;;10.05;4.43;;;;;;;;;;5095929;28;20087;-64
2022/02/09 07:43:28;;;;;;;13.43;4.78;;;;;;;;;;5095941;28;20054;-64
2022/02/09 07:46:15;;;;;;;9.35;4.18;;;;;;;;;;5095744;28;20101;-64
2022/02/09 07:48:55;;;;;;;15.75;5.20;;;;;;;;;;5095963;28;20070;-64
2022/02/09 07:51:41;;;;;;;11.48;4.30;;;;;;;;;;5095972;28;20052;-63
2022/02/09 07:54:09;;;;;;;10.68;4.25;;;;;;;;;;5095646;28;20562;-63
2022/02/09 07:56:37;;;;;;;11.00;5.05;;;;;;;;;;5095552;28;20132;-64
2022/02/09 07:59:06;;;;;;;12.20;4.75;;;;;;;;;;5095344;28;20051;-63
2022/02/09 08:01:33;;;;;;;11.60;4.40;;;;;;;;;;5095765;28;20079;-65
2022/02/09 08:04:01;;;;;;;13.75;4.40;;;;;;;;;;5095592;28;20093;-63
2022/02/09 08:06:29;;;;;;;10.68;4.95;;;;;;;;;;5095692;28;20040;-63
2022/02/09 08:09:00;;;;;;;9.88;4.63;;;;;;;;;;5095892;28;20408;-62
2022/02/09 08:11:33;;;;;;;9.73;4.72;;;;;;;;;;5096767;28;20510;-63
2022/02/09 08:28:19;;;;;;;12.80;3.45;;;;;;;;;;5095665;28;20054;-63
2022/02/09 08:31:11;;;;;;;6.10;2.35;;;;;;;;;;5095445;28;20057;-63
2022/02/09 08:33:38;;;;;;;6.22;2.58;;;;;;;;;;5095934;28;20492;-63
2022/02/09 08:36:07;;;;;;;6.15;2.60;;;;;;;;;;5095749;28;20596;-63
2022/02/09 08:38:35;;;;;;;7.63;2.75;;;;;;;;;;5095256;28;20044;-63
2022/02/09 08:41:03;;;;;;;5.95;3.08;;;;;;;;;;5095172;28;20110;-64
2022/02/09 08:43:30;;;;;;;6.68;3.00;;;;;;;;;;5094957;28;20044;-63
2022/02/09 08:45:57;;;;;;;7.72;2.60;;;;;;;;;;5094819;28;20050;-63
2022/02/09 08:48:24;;;;;;;8.90;2.20;;;;;;;;;;5094467;28;20044;-64
2022/02/09 08:50:52;;;;;;;6.25;2.58;;;;;;;;;;5094486;28;20127;-64
2022/02/09 08:53:21;;;;;;;6.55;2.80;;;;;;;;;;5094715;28;20390;-64
2022/02/09 08:55:49;;;;;;;7.25;3.03;;;;;;;;;;5094407;28;20044;-64
2022/02/09 08:58:19;;;;;;;7.85;3.67;;;;;;;;;;5094230;28;20487;-63
2022/02/09 09:00:47;;;;;;;9.18;3.38;;;;;;;;;;5094636;28;20130;-63
2022/02/09 09:03:18;;;;;;;7.68;3.58;;;;;;;;;;5094340;28;20051;-63
2022/02/09 09:05:48;;;;;;;5.95;2.80;;;;;;;;;;5094487;28;20138;-63
2022/02/09 09:08:38;;;;;;;9.20;3.03;;;;;;;;;;5093494;28;20052;-63
2022/02/09 09:11:38;;;;;;;6.47;3.30;;;;;;;;;;5093943;28;20051;-63
2022/02/09 09:58:12;;;;;;;5.93;2.50;;;;;;;;;;5090584;28;20051;-63
2022/02/09 10:03:49;;;;;;;5.95;2.83;;;;;;;;;;5036367;28;20040;-63
2022/02/09 10:34:24;;;;;;;6.75;2.85;;;;;;;;;;5080936;28;20049;-63
2022/02/09 10:36:55;;;;;;;6.60;2.53;;;;;;;;;;5080030;28;20358;-62
2022/02/09 10:39:29;;;;;;;11.52;2.35;;;;;;;;;;5081137;28;20056;-63
2022/02/09 10:42:03;;;;;;;6.88;2.67;;;;;;;;;;5080412;28;20044;-63
2022/02/09 10:44:45;;;;;;;6.82;2.45;;;;;;;;;;5079286;28;20410;-64
2022/02/09 10:47:20;;;;;;;6.80;2.58;;;;;;;;;;5079802;28;20114;-63
2022/02/09 10:50:11;;;;;;;7.93;2.28;;;;;;;;;;5078771;28;20051;-63
2022/02/09 10:52:41;;;;;;;7.18;2.33;;;;;;;;;;5080915;28;20055;-62
2022/02/09 10:55:29;;;;;;;8.02;2.78;;;;;;;;;;5085174;28;20401;-63
2022/02/09 10:57:57;;;;;;;7.30;2.60;;;;;;;;;;5089635;28;20127;-62
2022/02/09 11:00:25;;;;;;;9.45;2.63;;;;;;;;;;5090762;28;20048;-63
2022/02/09 11:02:52;;;;;;;7.25;2.45;;;;;;;;;;5090879;28;20410;-63
2022/02/09 11:05:21;;;;;;;5.28;2.20;;;;;;;;;;5090465;28;20054;-63
2022/02/09 11:07:49;;;;;;;8.23;2.80;;;;;;;;;;5092664;28;20556;-63
2022/02/09 11:10:17;;;;;;;6.22;2.40;;;;;;;;;;5094102;28;20055;-63
2022/02/09 11:12:45;;;;;;;7.65;2.58;;;;;;;;;;5094901;28;20059;-63
2022/02/09 11:15:17;;;;;;;6.95;2.70;;;;;;;;;;5093668;28;20404;-69
2022/02/09 11:17:47;;;;;;;5.95;2.58;;;;;;;;;;5095185;28;20416;-68
2022/02/09 11:20:16;;;;;;;6.68;3.17;;;;;;;;;;5094885;28;20052;-63
2022/02/09 11:22:47;;;;;;;7.95;3.00;;;;;;;;;;5094292;28;20105;-63
2022/02/09 11:25:19;;;;;;;5.68;2.67;;;;;;;;;;5094342;28;20071;-63
2022/02/09 11:27:52;;;;;;;6.35;2.58;;;;;;;;;;5093348;28;20075;-68
2022/02/09 11:30:32;;;;;;;7.25;2.42;;;;;;;;;;5094326;28;20044;-66
2022/02/09 11:33:21;;;;;;;5.07;1.98;;;;;;;;;;5094589;28;20143;-65
2022/02/09 11:36:20;;;;;;;5.25;2.33;;;;;;;;;;5094152;28;20469;-61
2022/02/09 11:38:52;;;;;;;6.63;2.03;;;;;;;;;;5093824;28;20059;-62
2022/02/09 11:41:23;;;;;;;6.75;3.17;;;;;;;;;;5093671;28;20052;-62
2022/02/09 11:44:05;;;;;;;7.10;2.78;;;;;;;;;;5093928;28;20048;-63
2022/02/09 12:09:50;;;;;;;6.47;2.10;;;;;;;;;;5033156;28;20535;-61
2022/02/09 12:12:22;;;;;;;4.28;1.90;;;;;;;;;;5093032;28;20052;-63
2022/02/09 12:14:59;;;;;;;5.90;2.40;;;;;;;;;;5093184;28;20044;-63
2022/02/09 12:17:47;;;;;;;6.53;2.38;;;;;;;;;;5093626;28;20067;-63
2022/02/09 12:20:21;;;;;;;5.32;2.38;;;;;;;;;;5092582;28;20051;-63
2022/02/09 12:23:05;;;;;;;5.15;2.50;;;;;;;;;;5093521;28;20524;-63
2022/02/09 12:25:40;;;;;;;7.57;2.55;;;;;;;;;;5093652;28;20093;-63
2022/02/09 12:28:14;;;;;;;6.28;2.58;;;;;;;;;;5093406;28;20036;-63
2022/02/09 12:30:41;;;;;;;7.20;2.28;;;;;;;;;;5093047;28;20044;-63
2022/02/09 12:33:18;;;;;;;5.75;1.90;;;;;;;;;;5093084;28;20464;-63
2022/02/09 12:35:45;;;;;;;5.32;2.28;;;;;;;;;;5093621;28;20050;-63
2022/02/09 12:38:12;;;;;;;7.70;2.22;;;;;;;;;;5092663;28;20291;-66
2022/02/09 12:40:39;;;;;;;8.50;2.50;;;;;;;;;;5093060;28;20090;-65
2022/02/09 12:43:12;;;;;;;6.38;2.42;;;;;;;;;;5092502;28;20068;-66
2022/02/09 12:45:40;;;;;;;6.53;2.45;;;;;;;;;;5092737;28;20157;-63
2022/02/09 12:48:11;;;;;;;6.57;2.70;;;;;;;;;;5092022;28;20055;-61
2022/02/09 12:50:40;;;;;;;;;;;;;;;;;;5092330;28;20058;-62
2022/02/09 12:53:08;;;;;;;5.90;2.35;;;;;;;;;;5093261;28;19927;-61
2022/02/09 12:55:37;;;;;;;4.93;2.00;;;;;;;;;;5093120;28;20313;-61
2022/02/09 12:58:09;;;;;;;6.45;2.10;;;;;;;;;;5092832;28;20143;-62
2022/02/09 13:00:40;;;;;;;8.90;3.42;;;;;;;;;;5093092;28;20128;-62
2022/02/09 13:03:09;;;;;;;7.05;2.28;;;;;;;;;;5092976;28;20040;-62
2022/02/09 13:05:43;;;;;;;7.00;2.20;;;;;;;;;;5091714;28;20043;-62
2022/02/09 13:08:11;;;;;;;7.10;2.40;;;;;;;;;;5092143;28;20091;-63
2022/02/09 13:10:39;;;;;;;5.63;2.15;;;;;;;;;;5091867;28;20048;-62
2022/02/09 13:13:12;;;;;;;6.15;2.22;;;;;;;;;;5091632;28;20071;-63
2022/02/09 13:15:46;;;;;;;7.32;2.20;;;;;;;;;;5092050;28;20091;-65
2022/02/09 13:18:38;;;;;;;6.45;1.90;;;;;;;;;;5092293;28;20044;-62
2022/02/09 14:14:58;;;;;;;5.05;1.60;;;;;;;;;;5144957;27;20368;-63
2022/02/09 14:17:52;;;;;;;5.03;1.45;;;;;;;;;;5128081;27;20047;-63
2022/02/09 14:53:53;;;;;;;6.40;1.95;;;;;;;;;;5083662;28;20048;-61
2022/02/09 14:56:24;;;;;;;5.40;1.80;;;;;;;;;;5127113;27;20318;-62
2022/02/09 14:58:58;;;;;;;5.38;1.90;;;;;;;;;;5127860;28;20048;-63
2022/02/09 15:01:34;;;;;;;5.40;2.55;;;;;;;;;;5128716;28;20497;-63
2022/02/09 15:04:19;;;;;;;5.18;1.73;;;;;;;;;;5128365;28;20043;-62
2022/02/09 15:06:58;;;;;;;7.45;4.13;;;;;;;;;;5127967;27;20055;-63
2022/02/09 15:09:38;;;;;;;16.08;5.50;;;;;;;;;;5128034;28;20499;-62
2022/02/09 15:12:17;;;;;;;6.45;1.88;;;;;;;;;;5128086;28;20134;-63
2022/02/09 15:15:01;;;;;;;5.18;1.45;;;;;;;;;;5127763;28;20460;-62
2022/02/09 15:17:41;;;;;;;6.93;1.83;;;;;;;;;;5127554;28;20062;-62
2022/02/09 15:20:35;;;;;;;9.05;2.00;;;;;;;;;;5128207;28;20047;-62
2022/02/09 15:23:00;;;;;;;4.57;1.38;;;;;;;;;;5127769;28;20046;-62
2022/02/09 15:25:32;;;;;;;11.45;3.10;;;;;;;;;;5118198;27;20098;-62
2022/02/09 15:28:01;;;;;;;6.55;1.70;;;;;;;;;;5113987;28;20412;-62
2022/02/09 15:30:32;;;;;;;5.10;1.80;;;;;;;;;;5114088;28;20403;-63
2022/02/09 15:33:01;;;;;;;5.85;1.55;;;;;;;;;;5113615;28;20097;-63
2022/02/09 15:35:34;;;;;;;4.57;1.60;;;;;;;;;;5113523;28;20062;-63
2022/02/09 15:38:07;;;;;;;21.08;2.88;;;;;;;;;;5113880;28;20496;-64
2022/02/09 15:40:47;;;;;;;7.68;2.35;;;;;;;;;;5113807;28;20044;-63
2022/02/09 15:43:42;;;;;;;6.00;1.80;;;;;;;;;;5113872;28;20474;-63
2022/02/09 15:57:34;;;;;;;6.65;1.80;;;;;;;;;;5113467;28;20058;-62
2022/02/09 16:05:43;;;;;;;4.90;1.52;;;;;;;;;;5113158;28;20059;-63
2022/02/09 16:08:32;;;;;;;10.77;2.55;;;;;;;;;;5112758;28;20086;-62
2022/02/09 16:11:19;;;;;;;6.63;2.38;;;;;;;;;;5112789;28;20435;-61
2022/02/09 16:16:55;;;;;;;6.53;2.60;;;;;;;;;;5112667;28;20196;-63
2022/02/09 16:22:11;;;;;;;9.65;3.28;;;;;;;;;;5090919;28;20062;-62
2022/02/09 16:25:10;;;;;;;10.20;3.45;;;;;;;;;;5113102;28;20040;-63
2022/02/09 16:33:17;;;;;;;9.23;3.08;;;;;;;;;;5112419;28;20534;-64
2022/02/09 16:38:59;;;;;;;7.80;3.33;;;;;;;;;;5112335;28;20051;-61
2022/02/09 16:46:49;;;;;;;10.07;4.30;;;;;;;;;;5009272;28;20056;-60
2022/02/09 16:49:27;;;;;;;11.35;4.18;;;;;;;;;;5011825;28;20053;-60
2022/02/09 16:52:00;;;;;;;10.80;4.20;;;;;;;;;;5011818;28;20458;-59
2022/02/09 16:54:34;;;;;;;10.63;4.20;;;;;;;;;;5011471;28;20081;-60
2022/02/09 16:57:20;;;;;;;13.18;4.18;;;;;;;;;;5011305;28;20104;-61
2022/02/09 17:19:01;;;;;;;15.30;5.40;;;;;;;;;;5011613;28;20503;-61
2022/02/09 17:21:30;;;;;;;14.80;5.80;;;;;;;;;;5011403;28;20057;-61
2022/02/09 17:24:01;;;;;;;25.52;7.40;;;;;;;;;;5011480;28;20534;-60
2022/02/09 17:26:29;;;;;;;24.63;7.70;;;;;;;;;;5010956;28;20459;-60
2022/02/09 17:29:00;;;;;;;23.98;9.38;;;;;;;;;;5010963;28;20053;-61
2022/02/09 17:31:35;;;;;;;21.45;7.95;;;;;;;;;;5010918;28;20113;-61
2022/02/09 17:34:41;;;;;;;22.20;7.85;;;;;;;;;;5010980;28;20092;-60
2022/02/09 17:53:36;;;;;;;22.95;7.90;;;;;;;;;;5010585;28;20144;-61
2022/02/09 17:56:07;;;;;;;21.75;7.38;;;;;;;;;;5010782;28;20506;-61
2022/02/09 17:58:39;;;;;;;22.55;7.30;;;;;;;;;;5010218;28;20054;-63
2022/02/09 18:01:08;;;;;;;19.35;7.55;;;;;;;;;;5010408;28;20064;-66
2022/02/09 18:03:35;;;;;;;25.02;7.95;;;;;;;;;;5010244;28;20085;-65
2022/02/09 18:06:14;;;;;;;25.88;9.38;;;;;;;;;;5010037;28;20052;-66
2022/02/09 18:08:49;;;;;;;35.75;10.57;;;;;;;;;;5009845;28;20068;-64
2022/02/09 18:11:27;;;;;;;26.90;10.52;;;;;;;;;;5010106;28;20050;-64
2022/02/09 18:25:34;;;;;;;38.40;13.68;;;;;;;;;;5010171;28;20126;-62
2022/02/09 18:30:54;;;;;;;44.40;20.08;;;;;;;;;;5009231;28;20049;-62
2022/02/09 18:33:49;;;;;;;53.35;23.00;;;;;;;;;;5009829;28;20076;-62
2022/02/09 18:44:43;;;;;;;52.10;19.50;;;;;;;;;;5010080;28;20041;-61
2022/02/09 18:47:38;;;;;;;45.22;18.20;;;;;;;;;;5009807;28;20449;-61
2022/02/09 19:01:35;;;;;;;37.75;17.60;;;;;;;;;;5012218;28;20520;-60
2022/02/09 19:04:09;;;;;;;39.78;17.17;;;;;;;;;;5013584;28;20417;-61
2022/02/09 19:07:06;;;;;;;47.50;19.35;;;;;;;;;;5013498;28;20086;-60
2022/02/09 19:18:00;;;;;;;;;;;;;;;;;;4992843;28;20141;-60
2022/02/09 19:20:42;;;;;;;45.00;16.88;;;;;;;;;;5013547;28;19921;-58
2022/02/09 19:26:20;;;;;;;43.47;18.05;;;;;;;;;;4993360;28;20540;-59
2022/02/09 19:29:26;;;;;;;45.28;18.23;;;;;;;;;;5010279;28;20056;-60
2022/02/09 19:32:14;;;;;;;43.53;19.48;;;;;;;;;;5012207;28;20053;-60
2022/02/09 19:45:56;;;;;;;51.17;18.63;;;;;;;;;;5012565;28;20054;-60
2022/02/09 19:48:27;;;;;;;53.17;19.23;;;;;;;;;;5013189;28;20499;-60
2022/02/09 19:51:09;;;;;;;53.03;21.13;;;;;;;;;;5012963;28;20046;-60
2022/02/09 19:53:42;;;;;;;47.90;18.75;;;;;;;;;;5012672;28;20062;-60
2022/02/09 19:56:14;;;;;;;52.97;19.08;;;;;;;;;;5012751;28;20050;-60
2022/02/09 19:58:45;;;;;;;48.45;17.38;;;;;;;;;;5012437;28;20107;-60
2022/02/09 20:01:16;;;;;;;45.85;16.92;;;;;;;;;;5012613;28;20081;-60
2022/02/09 20:03:43;;;;;;;41.40;15.82;;;;;;;;;;5012765;28;20526;-60
2022/02/09 20:06:10;;;;;;;33.25;14.52;;;;;;;;;;5012401;28;20085;-66
2022/02/09 20:08:38;;;;;;;35.17;13.98;;;;;;;;;;5011996;28;20129;-59
2022/02/09 20:11:05;;;;;;;30.83;13.50;;;;;;;;;;5012249;28;20140;-60
2022/02/09 20:13:34;;;;;;;34.28;14.88;;;;;;;;;;5012485;28;20056;-59
2022/02/09 20:16:01;;;;;;;32.97;13.90;;;;;;;;;;5012019;28;20056;-61
2022/02/09 20:18:28;;;;;;;30.52;14.52;;;;;;;;;;5012048;28;20085;-60
2022/02/09 20:20:56;;;;;;;34.85;14.00;;;;;;;;;;5012223;28;20050;-59
2022/02/09 20:23:23;;;;;;;28.92;12.77;;;;;;;;;;5012026;28;20060;-60
2022/02/09 20:25:51;;;;;;;33.63;12.45;;;;;;;;;;5012148;28;20064;-60
2022/02/09 20:28:19;;;;;;;30.08;11.90;;;;;;;;;;5011996;28;20089;-60
2022/02/09 20:30:53;;;;;;;27.92;12.57;;;;;;;;;;5011875;28;20054;-59
2022/02/09 20:33:25;;;;;;;30.40;13.48;;;;;;;;;;5012129;28;20057;-59
2022/02/09 20:35:53;;;;;;;37.85;14.20;;;;;;;;;;5011782;28;20046;-60
2022/02/09 20:38:24;;;;;;;29.40;12.57;;;;;;;;;;5011815;28;20054;-60
2022/02/09 20:40:55;;;;;;;29.42;13.10;;;;;;;;;;5011732;28;20081;-60
2022/02/09 20:43:24;;;;;;;32.58;13.70;;;;;;;;;;5011913;28;20137;-60
2022/02/09 20:45:55;;;;;;;28.85;12.13;;;;;;;;;;5011997;28;20065;-60
2022/02/09 20:48:25;;;;;;;32.38;12.57;;;;;;;;;;5011731;28;20518;-60
2022/02/09 20:50:53;;;;;;;27.27;10.98;;;;;;;;;;5011775;28;20050;-59
2022/02/09 20:53:21;;;;;;;24.88;11.27;;;;;;;;;;5011903;28;20478;-60
2022/02/09 20:55:49;;;;;;;26.85;10.45;;;;;;;;;;5011539;28;20060;-59
2022/02/09 20:58:17;;;;;;;21.95;10.38;;;;;;;;;;5011377;28;20045;-61
2022/02/09 21:00:50;;;;;;;27.00;10.88;;;;;;;;;;5011629;28;20061;-60
2022/02/09 21:03:29;;;;;;;27.92;11.10;;;;;;;;;;5011871;28;20601;-62
2022/02/09 21:06:09;;;;;;;29.50;11.98;;;;;;;;;;5011313;28;20137;-59
2022/02/09 21:08:48;;;;;;;24.27;10.18;;;;;;;;;;5011182;28;20099;-58
2022/02/09 21:11:22;;;;;;;28.90;10.35;;;;;;;;;;5011892;28;20476;-59
2022/02/09 21:13:59;;;;;;;26.27;11.40;;;;;;;;;;5011694;28;20096;-58
2022/02/09 21:16:43;;;;;;;20.70;10.88;;;;;;;;;;5011921;28;20129;-59
2022/02/09 21:41:33;;;;;;;20.63;7.70;;;;;;;;;;5088420;28;20107;-59
2022/02/09 21:56:09;;;;;;;20.98;7.88;;;;;;;;;;5087631;28;20505;-58
2022/02/09 21:58:41;;;;;;;21.58;8.90;;;;;;;;;;5087894;28;20052;-60
2022/02/09 22:20:55;;;;;;;45.50;17.05;;;;;;;;;;5087202;28;20055;-59
2022/02/09 22:23:59;;;;;;;23.45;10.82;;;;;;;;;;5088683;28;20056;-59
2022/02/09 22:29:23;;;;;;;13.70;7.25;;;;;;;;;;5087371;28;20048;-59
2022/02/09 22:32:02;;;;;;;16.08;7.85;;;;;;;;;;5087218;28;20455;-60
2022/02/09 22:45:42;;;;;;;14.88;6.35;;;;;;;;;;5073422;28;20055;-58
2022/02/09 22:48:31;;;;;;;15.55;6.28;;;;;;;;;;5073039;28;20109;-58
2022/02/09 22:54:26;;;;;;;14.55;6.05;;;;;;;;;;5072920;28;20048;-60
2022/02/09 22:56:31;;;;;;;12.63;6.80;;;;;;;;;;5072943;28;20064;-59
2022/02/09 22:59:01;;;;;;;16.67;6.25;;;;;;;;;;5073086;28;20052;-58
2022/02/09 23:01:36;;;;;;;23.27;8.25;;;;;;;;;;5073365;28;20060;-57
2022/02/09 23:04:30;;;;;;;20.40;8.60;;;;;;;;;;5073240;28;20047;-59
2022/02/09 23:07:00;;;;;;;27.55;9.70;;;;;;;;;;5073117;28;20055;-60
2022/02/09 23:09:49;;;;;;;20.40;8.45;;;;;;;;;;5072722;28;20083;-59
2022/02/09 23:12:27;;;;;;;23.17;11.23;;;;;;;;;;5073421;28;20056;-60
2022/02/09 23:23:48;;;;;;;19.15;9.48;;;;;;;;;;5047247;28;20079;-60
2022/02/09 23:26:41;;;;;;;18.00;8.30;;;;;;;;;;5072922;28;20059;-58
